PATA/TAL METAR and TAF weather

Enter ICAO airport designator
Station Type Date Time Source
PATA METAR 2022/01/29 10:52 UTC NOAA

PATA 291052Z AUTO 30004KT 10SM CLR M29/M32 A2998 RMK AO2 SLP165 T12941322 TSNO $


Station Type Date Time Source
PATA Decoded METAR 2022/01/29 10:52 UTC NOAA

TANANA CALHOUN MEMORIAL AIRPORT , AK, United States (PATA) 65-10N 152-06W 67M
Jan 29, 2022 - 05:52 AM EST / 2022.01.29 1052 UTC
Wind: from the WNW (300 degrees) at 5 MPH (4 KT):0
Visibility: 10 mile(s):0
Sky conditions: clear
Temperature: -20.9 F (-29.4 C)
Windchill: -34 F (-37 C):2
Dew Point: -26.0 F (-32.2 C)
Relative Humidity: 76%
Pressure (altimeter): 29.98 in. Hg (1015 hPa)
ob: PATA 291052Z AUTO 30004KT 10SM CLR M29/M32 A2998 RMK AO2 SLP165 T12941322 TSNO
cycle: 11

Station Type Date Time Source
PATA TAF 2022/01/29 06:33 UTC NOAA

TAF PATA 290531Z 2906/3006 01006KT P6SM BKN180
FM291200 07003KT P6SM SKC

Example: see airport list